Missoula, Montana
Current Conditions -  °F | °C
As of 12:53 AM on Sunday 23 Nov 2014 (Local Time) from KMSO Reporting Station
Broken Clouds Broken Clouds  
Wind Chill: 28°   Ceiling: 5500
Heat Index: 35°   Visibility: 10mi
Dew Point: 27°   Wind: 9mph
Humidity: 72%   Direction: 320°NW
Pressure: 29.89"   Gusts: NA
Location:  46.87°N, 113.99°W
Report Text: KMSO 230753Z AUTO 32008KT 10SM SCT046 BKN055 02/M03 A2989 RMK AO2 SLP137 T00171028
Loading
Personal Weather Stations






























Interactive Weather Map New forecast layout! Learn more

10-Day Weather Forecast

Advertisements
Track Severe Weather on mobile